createdAt,value
2022-10-19T00:01:31.357Z,7.62
2022-10-19T00:03:58.885Z,7.57
2022-10-19T00:06:28.642Z,7.53
2022-10-19T00:09:01.325Z,7.50
2022-10-19T00:11:28.939Z,7.46
2022-10-19T00:13:57.001Z,7.43
2022-10-19T00:16:28.902Z,7.39
2022-10-19T00:19:00.510Z,7.37
2022-10-19T00:21:27.774Z,7.33
2022-10-19T00:23:54.212Z,7.31
2022-10-19T00:26:20.642Z,7.26
2022-10-19T00:28:47.453Z,7.23
2022-10-19T00:31:16.604Z,7.19
2022-10-19T00:33:49.306Z,7.14
2022-10-19T00:36:23.225Z,7.11
2022-10-19T00:38:50.191Z,7.07
2022-10-19T00:41:17.768Z,7.07
2022-10-19T00:44:28.728Z,7.02
2022-10-19T00:46:59.756Z,6.98
2022-10-19T00:49:29.868Z,6.95
2022-10-19T00:52:01.580Z,6.92
2022-10-19T00:54:28.864Z,6.87
2022-10-19T00:56:57.841Z,6.84
2022-10-19T00:59:25.581Z,6.82
2022-10-19T01:01:53.260Z,6.78
2022-10-19T01:04:25.261Z,6.75
2022-10-19T01:06:53.571Z,6.73
2022-10-19T01:09:20.690Z,6.70
2022-10-19T01:12:03.839Z,6.66
2022-10-19T01:14:52.158Z,6.63
2022-10-19T01:17:43.465Z,6.57
2022-10-19T01:20:33.175Z,6.54
2022-10-19T01:23:17.093Z,6.51
2022-10-19T01:25:49.705Z,6.49
2022-10-19T01:28:57.816Z,6.49
2022-10-19T01:31:44.638Z,6.44
2022-10-19T01:34:36.878Z,6.40
2022-10-19T01:37:25.889Z,6.35
2022-10-19T01:40:15.430Z,6.33
2022-10-19T01:42:47.870Z,6.29
2022-10-19T01:45:21.744Z,6.26
2022-10-19T01:47:55.396Z,6.24
2022-10-19T01:50:39.418Z,6.20
2022-10-19T01:53:08.600Z,6.18
2022-10-19T01:55:39.175Z,6.17
2022-10-19T01:58:09.732Z,6.12
2022-10-19T02:00:41.032Z,6.10
2022-10-19T02:03:09.930Z,6.07
2022-10-19T02:05:38.124Z,6.04
2022-10-19T02:08:12.071Z,6.00
2022-10-19T02:10:42.743Z,5.97
2022-10-19T02:13:10.189Z,5.96
2022-10-19T02:15:40.762Z,5.91
2022-10-19T02:18:10.188Z,5.88
2022-10-19T02:20:37.233Z,5.87
2022-10-19T02:23:05.505Z,5.85
2022-10-19T02:25:33.078Z,5.82
2022-10-19T02:28:02.114Z,5.82
2022-10-19T02:30:28.825Z,5.77
2022-10-19T02:32:55.328Z,5.74
2022-10-19T02:35:22.938Z,5.72
2022-10-19T02:37:49.578Z,5.72
2022-10-19T02:40:16.279Z,5.67
2022-10-19T02:42:52.411Z,5.65
2022-10-19T02:45:24.040Z,5.60
2022-10-19T02:48:02.069Z,5.59
2022-10-19T02:50:29.110Z,5.59
2022-10-19T02:52:55.486Z,5.58
2022-10-19T02:55:21.891Z,5.56
2022-10-19T02:57:48.249Z,5.54
2022-10-19T03:00:14.847Z,5.52
2022-10-19T03:02:41.256Z,5.51
2022-10-19T03:05:09.037Z,5.50
2022-10-19T03:07:36.251Z,5.47
2022-10-19T03:10:03.224Z,5.46
2022-10-19T03:12:29.634Z,5.43
2022-10-19T03:14:56.059Z,5.44
2022-10-19T03:17:22.516Z,5.42
2022-10-19T03:19:48.939Z,5.38
2022-10-19T03:22:15.503Z,5.36
2022-10-19T03:24:41.895Z,5.33
2022-10-19T03:27:08.578Z,5.30
2022-10-19T03:29:35.040Z,5.28
2022-10-19T03:32:01.480Z,5.24
2022-10-19T03:34:27.876Z,5.22
2022-10-19T03:36:54.344Z,5.19
2022-10-19T03:39:20.760Z,5.17
2022-10-19T03:41:47.281Z,5.16
2022-10-19T03:44:13.772Z,5.15
2022-10-19T03:46:40.653Z,5.13
2022-10-19T03:49:07.739Z,5.10
2022-10-19T03:51:34.718Z,5.07
2022-10-19T03:54:07.045Z,5.05
2022-10-19T03:56:35.336Z,5.04
2022-10-19T03:59:03.856Z,5.03
2022-10-19T04:01:31.820Z,5.01
2022-10-19T04:04:01.241Z,4.97
2022-10-19T04:06:30.143Z,4.96
2022-10-19T04:08:57.101Z,4.95
2022-10-19T04:11:29.804Z,4.93
2022-10-19T04:13:57.907Z,4.91
2022-10-19T04:16:25.858Z,4.90
2022-10-19T04:18:52.465Z,4.87
2022-10-19T04:21:30.775Z,4.87
2022-10-19T04:24:05.868Z,4.85
2022-10-19T04:26:33.684Z,4.82
2022-10-19T04:29:01.120Z,4.81
2022-10-19T04:31:28.457Z,4.78
2022-10-19T04:33:55.160Z,4.76
2022-10-19T04:36:21.851Z,4.74
2022-10-19T04:38:48.384Z,4.73
2022-10-19T04:41:17.815Z,4.71
2022-10-19T04:43:45.306Z,4.71
2022-10-19T04:46:15.436Z,4.70
2022-10-19T04:48:42.896Z,4.69
2022-10-19T04:51:10.651Z,4.67
2022-10-19T04:53:38.682Z,4.65
2022-10-19T04:56:08.539Z,4.64
2022-10-19T04:58:35.504Z,4.62
2022-10-19T05:01:19.065Z,4.59
2022-10-19T05:03:46.255Z,4.58
2022-10-19T05:06:13.695Z,4.57
2022-10-19T05:08:40.142Z,4.56
2022-10-19T05:11:14.453Z,4.55
2022-10-19T05:13:41.904Z,4.53
2022-10-19T05:16:15.297Z,4.51
2022-10-19T05:18:42.368Z,4.48
2022-10-19T05:21:11.188Z,4.47
2022-10-19T05:23:38.459Z,4.45
2022-10-19T05:26:08.903Z,4.42
2022-10-19T05:28:35.887Z,4.41
2022-10-19T05:31:06.694Z,4.41
2022-10-19T05:33:34.072Z,4.39
2022-10-19T05:36:29.571Z,4.36
2022-10-19T05:38:57.777Z,4.35
2022-10-19T05:41:26.003Z,4.32
2022-10-19T05:43:54.872Z,4.30
2022-10-19T05:46:21.675Z,4.29
2022-10-19T05:48:48.572Z,4.28
2022-10-19T05:51:18.683Z,4.25
2022-10-19T05:53:45.689Z,4.23
2022-10-19T05:56:17.788Z,4.25
2022-10-19T05:58:44.288Z,4.24
2022-10-19T06:01:11.191Z,4.23
2022-10-19T06:03:37.597Z,4.24
2022-10-19T06:06:05.853Z,4.22
2022-10-19T06:08:32.664Z,4.20
2022-10-19T06:11:14.084Z,4.19
2022-10-19T06:13:41.797Z,4.18
2022-10-19T06:16:09.822Z,4.17
2022-10-19T06:18:36.832Z,4.17
2022-10-19T06:21:08.917Z,4.17
2022-10-19T06:23:35.782Z,4.17
2022-10-19T06:26:04.589Z,4.14
2022-10-19T06:28:31.117Z,4.14
2022-10-19T06:30:58.872Z,4.15
2022-10-19T06:33:26.901Z,4.16
2022-10-19T06:35:53.644Z,4.17
2022-10-19T06:38:20.315Z,4.17
2022-10-19T06:40:47.086Z,4.19
2022-10-19T06:43:13.479Z,4.19
2022-10-19T06:45:40.372Z,4.21
2022-10-19T06:48:07.902Z,4.24
2022-10-19T06:50:35.357Z,4.27
2022-10-19T06:53:01.868Z,4.31
2022-10-19T06:55:28.457Z,4.37
2022-10-19T06:57:54.861Z,4.42
2022-10-19T07:00:21.316Z,4.46
2022-10-19T07:02:47.805Z,4.50
2022-10-19T07:05:14.339Z,4.58
2022-10-19T07:07:40.787Z,4.65
2022-10-19T07:10:07.525Z,4.78
2022-10-19T07:12:33.965Z,4.87
2022-10-19T07:15:00.357Z,4.97
2022-10-19T07:17:26.785Z,5.03
2022-10-19T07:19:53.290Z,5.12
2022-10-19T07:22:23.272Z,5.14
2022-10-19T07:24:54.604Z,5.20
2022-10-19T07:27:21.039Z,5.31
2022-10-19T07:29:47.482Z,5.38
2022-10-19T07:32:13.918Z,5.47
2022-10-19T07:34:40.307Z,5.55
2022-10-19T07:37:06.771Z,5.61
2022-10-19T07:39:33.286Z,5.69
2022-10-19T07:41:59.700Z,5.76
2022-10-19T07:44:26.381Z,5.83
2022-10-19T07:46:52.801Z,5.90
2022-10-19T07:49:19.997Z,5.97
2022-10-19T07:51:47.112Z,6.04
2022-10-19T07:54:13.686Z,6.12
2022-10-19T07:56:40.462Z,6.21
2022-10-19T07:59:07.031Z,6.28
2022-10-19T08:01:38.362Z,6.35
2022-10-19T08:06:51.340Z,6.54
2022-10-19T08:09:40.116Z,6.62
2022-10-19T08:12:05.784Z,6.73
2022-10-19T08:14:32.565Z,6.85
2022-10-19T08:16:59.038Z,6.94
2022-10-19T08:19:25.514Z,7.05
2022-10-19T08:21:52.141Z,7.14
2022-10-19T08:24:19.886Z,7.22
2022-10-19T08:26:46.718Z,7.33
2022-10-19T08:29:15.890Z,7.48
2022-10-19T08:31:43.842Z,7.63
2022-10-19T08:34:10.642Z,7.72
2022-10-19T08:36:37.214Z,7.80
2022-10-19T08:39:05.944Z,7.92
2022-10-19T08:41:32.426Z,8.01
2022-10-19T08:44:20.265Z,8.13
2022-10-19T08:47:00.521Z,8.27
2022-10-19T08:49:31.761Z,8.40
2022-10-19T08:52:00.707Z,8.49
2022-10-19T08:54:54.314Z,8.63
2022-10-19T08:57:34.757Z,8.74
2022-10-19T09:00:18.865Z,8.83
2022-10-19T09:03:11.981Z,8.95
2022-10-19T09:05:47.816Z,9.08
2022-10-19T09:08:17.795Z,9.15
2022-10-19T09:10:48.744Z,9.19
2022-10-19T09:13:36.419Z,9.28
2022-10-19T09:16:17.470Z,9.38
2022-10-19T09:18:46.874Z,9.44
2022-10-19T09:21:34.449Z,9.50
2022-10-19T09:24:24.774Z,9.59
2022-10-19T09:26:54.401Z,9.71
2022-10-19T09:29:27.859Z,9.77
2022-10-19T09:35:02.621Z,9.98
2022-10-19T09:37:31.167Z,10.08
2022-10-19T09:39:57.664Z,10.17
2022-10-19T09:42:30.123Z,10.26
2022-10-19T09:44:58.537Z,10.31
2022-10-19T09:47:34.597Z,10.37
2022-10-19T09:50:26.970Z,10.48
2022-10-19T09:52:56.584Z,10.58
2022-10-19T09:55:22.940Z,10.67
2022-10-19T09:57:58.368Z,10.72
2022-10-19T10:00:32.181Z,10.77
2022-10-19T10:02:58.713Z,10.84
2022-10-19T10:05:34.464Z,10.92
2022-10-19T10:08:01.526Z,10.91
2022-10-19T10:10:39.216Z,10.93
2022-10-19T10:13:06.132Z,10.98
2022-10-19T10:15:43.325Z,11.01
2022-10-19T10:18:15.558Z,11.06
2022-10-19T10:21:05.868Z,11.14
2022-10-19T10:23:36.263Z,11.23
2022-10-19T10:26:04.717Z,11.29
2022-10-19T10:28:31.617Z,11.31
2022-10-19T10:31:08.828Z,11.30
2022-10-19T10:33:44.645Z,11.35
2022-10-19T10:36:12.336Z,11.35
2022-10-19T10:38:51.740Z,11.33
2022-10-19T10:41:23.263Z,11.35
2022-10-19T10:44:04.531Z,11.43
2022-10-19T10:47:02.519Z,11.47
2022-10-19T10:49:35.139Z,11.51
2022-10-19T10:52:06.496Z,11.60
2022-10-19T10:54:33.498Z,11.67
2022-10-19T10:57:05.589Z,11.68
2022-10-19T10:59:44.720Z,11.70
2022-10-19T11:02:42.307Z,11.74
2022-10-19T11:05:19.496Z,11.75
2022-10-19T11:07:50.472Z,11.81
2022-10-19T11:10:24.307Z,11.88
2022-10-19T11:13:07.130Z,11.95
2022-10-19T11:16:06.669Z,12.08
2022-10-19T11:18:46.067Z,12.13
2022-10-19T11:21:20.217Z,12.21
2022-10-19T11:24:17.546Z,12.32
2022-10-19T11:27:22.077Z,12.43
2022-10-19T11:30:04.180Z,12.50
2022-10-19T11:32:35.872Z,12.56
2022-10-19T11:35:25.785Z,12.61
2022-10-19T11:38:18.323Z,12.68
2022-10-19T11:41:17.882Z,12.79
2022-10-19T11:44:01.563Z,12.90
2022-10-19T11:46:49.120Z,12.93
2022-10-19T11:49:54.587Z,12.96
2022-10-19T11:52:34.639Z,13.05
2022-10-19T11:55:04.700Z,13.10
2022-10-19T11:57:38.203Z,13.11
2022-10-19T12:00:27.338Z,13.13
2022-10-19T12:03:19.614Z,13.09
2022-10-19T12:06:01.227Z,13.11
2022-10-19T12:08:51.189Z,13.16
2022-10-19T12:11:27.547Z,13.16
2022-10-19T12:13:59.479Z,13.21
2022-10-19T12:16:38.154Z,13.26
2022-10-19T12:19:06.562Z,13.34
2022-10-19T12:21:43.179Z,13.39
2022-10-19T12:24:15.802Z,13.39
2022-10-19T12:26:44.411Z,13.40
2022-10-19T12:29:26.916Z,13.48
2022-10-19T12:31:56.070Z,13.50
2022-10-19T12:35:13.880Z,13.53
2022-10-19T12:38:05.522Z,13.50
2022-10-19T12:40:53.997Z,13.53
2022-10-19T12:43:33.989Z,13.56
2022-10-19T12:46:00.410Z,13.59
2022-10-19T12:48:26.840Z,13.64
2022-10-19T12:50:53.948Z,13.66
2022-10-19T12:53:32.439Z,13.67
2022-10-19T12:56:07.171Z,13.70
2022-10-19T12:58:43.622Z,13.73
2022-10-19T13:01:34.480Z,13.78
2022-10-19T13:04:09.062Z,13.80
2022-10-19T13:06:39.496Z,13.82
2022-10-19T13:09:09.100Z,13.84
2022-10-19T13:11:38.297Z,13.80
2022-10-19T13:14:20.095Z,13.84
2022-10-19T13:16:57.177Z,13.85
2022-10-19T13:19:23.816Z,13.84
2022-10-19T13:21:51.445Z,13.84
2022-10-19T13:24:23.910Z,13.88
2022-10-19T13:27:02.476Z,13.90
2022-10-19T13:29:41.206Z,13.95
2022-10-19T13:32:36.435Z,14.04
2022-10-19T13:35:21.577Z,14.11
2022-10-19T13:38:10.262Z,14.10
2022-10-19T13:40:39.205Z,14.10
2022-10-19T13:43:05.643Z,14.06
2022-10-19T13:45:32.169Z,14.03
2022-10-19T13:48:14.595Z,14.02
2022-10-19T13:50:47.968Z,14.00
2022-10-19T13:53:23.573Z,14.01
2022-10-19T13:56:22.413Z,14.04
2022-10-19T13:59:24.742Z,14.02
2022-10-19T14:01:54.284Z,14.04
2022-10-19T14:04:50.486Z,14.10
2022-10-19T14:07:25.333Z,14.17
2022-10-19T14:10:32.655Z,14.17
2022-10-19T14:13:00.542Z,14.18
2022-10-19T14:15:32.200Z,14.14
2022-10-19T14:18:02.387Z,14.12
2022-10-19T14:20:38.289Z,14.09
2022-10-19T14:23:23.914Z,14.06
2022-10-19T14:25:53.156Z,14.04
2022-10-19T14:28:21.922Z,13.98
2022-10-19T14:31:00.498Z,13.96
2022-10-19T14:33:30.189Z,13.91
2022-10-19T14:35:57.010Z,13.89
2022-10-19T14:38:27.841Z,13.86
2022-10-19T14:40:55.797Z,13.84
2022-10-19T14:43:25.807Z,13.86
2022-10-19T14:46:10.873Z,13.88
2022-10-19T14:48:48.966Z,13.88
2022-10-19T14:51:30.854Z,13.87
2022-10-19T14:54:08.137Z,13.88
2022-10-19T14:56:58.545Z,13.91
2022-10-19T14:59:29.948Z,13.87
2022-10-19T15:02:00.127Z,13.84
2022-10-19T15:04:31.570Z,13.85
2022-10-19T15:07:01.030Z,13.82
2022-10-19T15:09:37.460Z,13.79
2022-10-19T15:12:17.070Z,13.75
2022-10-19T15:14:45.343Z,13.73
2022-10-19T15:17:30.076Z,13.66
2022-10-19T15:20:00.811Z,13.61
2022-10-19T15:22:30.571Z,13.59
2022-10-19T15:25:06.208Z,13.56
2022-10-19T15:27:45.565Z,13.49
2022-10-19T15:30:17.907Z,13.42
2022-10-19T15:33:08.304Z,13.35
2022-10-19T15:35:37.426Z,13.30
2022-10-19T15:38:22.737Z,13.23
2022-10-19T15:40:49.670Z,13.14
2022-10-19T15:43:34.436Z,13.07
2022-10-19T15:46:03.839Z,13.01
2022-10-19T15:48:44.349Z,12.94
2022-10-19T15:51:33.057Z,12.89
2022-10-19T15:54:05.601Z,12.83
2022-10-19T15:56:36.816Z,12.77
2022-10-19T15:59:06.504Z,12.71
2022-10-19T16:01:34.379Z,12.66
2022-10-19T16:04:01.041Z,12.60
2022-10-19T16:06:33.095Z,12.54
2022-10-19T16:09:00.721Z,12.48
2022-10-19T16:11:28.967Z,12.44
2022-10-19T16:13:55.481Z,12.39
2022-10-19T16:16:26.741Z,12.34
2022-10-19T16:18:54.550Z,12.27
2022-10-19T16:21:24.284Z,12.22
2022-10-19T16:23:50.752Z,12.15
2022-10-19T16:26:19.621Z,12.12
2022-10-19T16:28:46.079Z,12.08
2022-10-19T16:31:12.510Z,12.01
2022-10-19T16:33:39.021Z,11.96
2022-10-19T16:36:07.337Z,11.93
2022-10-19T16:38:34.890Z,11.88
2022-10-19T16:41:09.009Z,11.84
2022-10-19T16:43:36.355Z,11.79
2022-10-19T16:46:03.915Z,11.76
2022-10-19T16:48:30.679Z,11.72
2022-10-19T16:51:06.499Z,11.68
2022-10-19T16:53:33.694Z,11.65
2022-10-19T16:56:08.916Z,11.63
2022-10-19T16:58:37.210Z,11.60
2022-10-19T17:01:11.772Z,11.56
2022-10-19T17:03:38.372Z,11.52
2022-10-19T17:06:07.066Z,11.49
2022-10-19T17:08:37.084Z,11.46
2022-10-19T17:11:20.653Z,11.42
2022-10-19T17:13:49.405Z,11.40
2022-10-19T17:16:18.276Z,11.37
2022-10-19T17:18:45.075Z,11.34
2022-10-19T17:21:14.823Z,11.32
2022-10-19T17:23:42.015Z,11.31
2022-10-19T17:26:09.228Z,11.27
2022-10-19T17:28:36.928Z,11.26
2022-10-19T17:31:05.785Z,11.23
2022-10-19T17:33:32.625Z,11.19
2022-10-19T17:36:08.498Z,11.16
2022-10-19T17:38:36.428Z,11.14
2022-10-19T17:41:14.602Z,11.10
2022-10-19T17:43:45.858Z,11.07
2022-10-19T17:46:14.274Z,11.06
2022-10-19T17:48:42.840Z,11.02
2022-10-19T17:51:15.896Z,11.01
2022-10-19T17:53:46.157Z,10.99
2022-10-19T17:56:15.726Z,10.97
2022-10-19T17:58:42.590Z,10.95
2022-10-19T18:01:11.077Z,10.92
2022-10-19T18:03:38.773Z,10.88
2022-10-19T18:06:10.792Z,10.88
2022-10-19T18:08:43.247Z,10.88
2022-10-19T18:11:15.958Z,10.86
2022-10-19T18:13:43.133Z,10.85
2022-10-19T18:16:12.885Z,10.81
2022-10-19T18:18:41.947Z,10.80
2022-10-19T18:21:13.506Z,10.80
2022-10-19T18:23:40.325Z,10.79
2022-10-19T18:26:10.649Z,10.79
2022-10-19T18:28:37.667Z,10.77
2022-10-19T18:31:08.841Z,10.75
2022-10-19T18:33:36.084Z,10.71
2022-10-19T18:36:04.099Z,10.69
2022-10-19T18:38:30.713Z,10.69
2022-10-19T18:41:05.589Z,10.66
2022-10-19T18:43:32.180Z,10.62
2022-10-19T18:46:00.211Z,10.59
2022-10-19T18:48:29.229Z,10.56
2022-10-19T18:50:57.228Z,10.52
2022-10-19T18:53:24.152Z,10.49
2022-10-19T18:56:07.390Z,10.49
2022-10-19T18:58:34.824Z,10.47
2022-10-19T19:01:04.193Z,10.45
2022-10-19T19:03:30.967Z,10.41
2022-10-19T19:06:05.864Z,10.38
2022-10-19T19:08:32.536Z,10.38
2022-10-19T19:11:15.961Z,10.36
2022-10-19T19:13:51.015Z,10.34
2022-10-19T19:16:17.704Z,10.32
2022-10-19T19:18:44.186Z,10.32
2022-10-19T19:21:22.677Z,10.29
2022-10-19T19:23:50.327Z,10.27
2022-10-19T19:26:17.954Z,10.26
2022-10-19T19:28:49.060Z,10.23
2022-10-19T19:31:18.955Z,10.22
2022-10-19T19:33:46.979Z,10.18
2022-10-19T19:36:15.577Z,10.15
2022-10-19T19:38:42.543Z,10.13
2022-10-19T19:41:12.900Z,10.11
2022-10-19T19:43:39.477Z,10.06
2022-10-19T19:46:12.528Z,10.01
2022-10-19T19:48:41.112Z,9.97
2022-10-19T19:51:09.181Z,9.94
2022-10-19T19:53:36.895Z,9.92
2022-10-19T19:56:03.792Z,9.88
2022-10-19T19:58:30.188Z,9.86
2022-10-19T20:00:56.590Z,9.83
2022-10-19T20:03:23.028Z,9.80
2022-10-19T20:05:49.433Z,9.78
2022-10-19T20:08:15.849Z,9.75
2022-10-19T20:10:43.541Z,9.72
2022-10-19T20:13:09.914Z,9.70
2022-10-19T20:15:39.629Z,9.68
2022-10-19T20:18:06.427Z,9.67
2022-10-19T20:20:32.912Z,9.63
2022-10-19T20:22:59.392Z,9.62
2022-10-19T20:25:25.852Z,9.59
2022-10-19T20:27:52.236Z,9.57
2022-10-19T20:30:18.720Z,9.54
2022-10-19T20:32:45.126Z,9.54
2022-10-19T20:35:11.553Z,9.53
2022-10-19T20:37:37.953Z,9.50
2022-10-19T20:40:08.519Z,9.49
2022-10-19T20:42:35.863Z,9.47
2022-10-19T20:45:02.668Z,9.47
2022-10-19T20:47:29.462Z,9.42
2022-10-19T20:49:55.880Z,9.41
2022-10-19T20:52:22.323Z,9.39
2022-10-19T20:54:49.282Z,9.36
2022-10-19T20:57:15.741Z,9.33
2022-10-19T20:59:43.831Z,9.29
2022-10-19T21:02:11.481Z,9.29
2022-10-19T21:04:37.949Z,9.26
2022-10-19T21:07:05.008Z,9.24
2022-10-19T21:09:31.883Z,9.21
2022-10-19T21:11:58.585Z,9.19
2022-10-19T21:14:28.383Z,9.17
2022-10-19T21:16:57.327Z,9.15
2022-10-19T21:19:25.781Z,9.12
2022-10-19T21:21:57.868Z,9.11
2022-10-19T21:24:26.978Z,9.10
2022-10-19T21:26:54.076Z,9.07
2022-10-19T21:29:20.593Z,9.06
2022-10-19T21:31:49.422Z,9.05
2022-10-19T21:34:25.338Z,9.02
2022-10-19T21:36:52.268Z,8.98
2022-10-19T21:39:19.554Z,8.94
2022-10-19T21:41:46.703Z,8.92
2022-10-19T21:44:14.749Z,8.88
2022-10-19T21:46:43.466Z,8.84
2022-10-19T21:49:13.041Z,8.81
2022-10-19T21:51:43.628Z,8.80
2022-10-19T21:54:15.948Z,8.76
2022-10-19T21:56:43.227Z,8.73
2022-10-19T21:59:09.773Z,8.70
2022-10-19T22:01:40.163Z,8.68
2022-10-19T22:04:11.732Z,8.65
2022-10-19T22:06:38.252Z,8.62
2022-10-19T22:09:06.857Z,8.61
2022-10-19T22:11:34.071Z,8.58
2022-10-19T22:14:02.530Z,8.57
2022-10-19T22:16:30.083Z,8.55
2022-10-19T22:18:57.276Z,8.55
2022-10-19T22:21:26.902Z,8.53
2022-10-19T22:23:56.495Z,8.51
2022-10-19T22:26:29.031Z,8.49
2022-10-19T22:28:57.122Z,8.48
2022-10-19T22:31:24.890Z,8.46
2022-10-19T22:33:51.364Z,8.45
2022-10-19T22:36:18.363Z,8.46
2022-10-19T22:38:45.092Z,8.42
2022-10-19T22:42:07.609Z,8.38
2022-10-19T22:44:34.058Z,8.36
2022-10-19T22:47:00.495Z,8.35
2022-10-19T22:49:26.898Z,8.35
2022-10-19T22:51:53.296Z,8.34
2022-10-19T22:54:19.728Z,8.32
2022-10-19T22:56:46.251Z,8.33
2022-10-19T22:59:12.795Z,8.31
2022-10-19T23:01:39.315Z,8.29
2022-10-19T23:04:06.132Z,8.27
2022-10-19T23:06:32.901Z,8.25
2022-10-19T23:08:59.370Z,8.21
2022-10-19T23:11:25.819Z,8.20
2022-10-19T23:13:52.269Z,8.18
2022-10-19T23:16:18.761Z,8.18
2022-10-19T23:18:45.253Z,8.17
2022-10-19T23:21:13.277Z,8.15
2022-10-19T23:23:40.222Z,8.15
2022-10-19T23:26:12.915Z,8.14
2022-10-19T23:28:40.967Z,8.13
2022-10-19T23:31:10.673Z,8.12
2022-10-19T23:33:37.306Z,8.12
2022-10-19T23:36:11.426Z,8.12
2022-10-19T23:38:37.868Z,8.10
2022-10-19T23:41:04.721Z,8.11
2022-10-19T23:43:31.584Z,8.10
2022-10-19T23:45:58.124Z,8.08
2022-10-19T23:48:25.287Z,8.08
2022-10-19T23:50:59.584Z,8.08
2022-10-19T23:53:26.459Z,8.07
2022-10-19T23:55:58.948Z,8.03
2022-10-19T23:58:25.479Z,8.03
